sensor_id;sensor_type;location;lat;lon;timestamp;pressure;altitude;pressure_sealevel;temperature;humidity
9249;BME280;4660;41.768;26.198;2023-03-17T00:01:36;101077.53;;;6.34;100.00
9249;BME280;4660;41.768;26.198;2023-03-17T00:04:02;101097.66;;;6.40;100.00
9249;BME280;4660;41.768;26.198;2023-03-17T00:06:33;101100.84;;;6.32;100.00
9249;BME280;4660;41.768;26.198;2023-03-17T00:09:01;101088.84;;;6.12;100.00
9249;BME280;4660;41.768;26.198;2023-03-17T00:11:28;101097.81;;;6.11;100.00
9249;BME280;4660;41.768;26.198;2023-03-17T00:13:55;101099.19;;;6.04;100.00
9249;BME280;4660;41.768;26.198;2023-03-17T00:16:25;101096.97;;;6.11;100.00
9249;BME280;4660;41.768;26.198;2023-03-17T00:18:53;101099.53;;;6.12;100.00
9249;BME280;4660;41.768;26.198;2023-03-17T00:21:27;101090.97;;;6.07;100.00
9249;BME280;4660;41.768;26.198;2023-03-17T00:23:53;101093.00;;;6.03;100.00
9249;BME280;4660;41.768;26.198;2023-03-17T00:26:21;101096.28;;;6.07;100.00
9249;BME280;4660;41.768;26.198;2023-03-17T00:28:48;101105.13;;;6.34;100.00
9249;BME280;4660;41.768;26.198;2023-03-17T00:31:21;101102.34;;;6.23;100.00
9249;BME280;4660;41.768;26.198;2023-03-17T00:33:51;101096.75;;;6.14;100.00
9249;BME280;4660;41.768;26.198;2023-03-17T00:36:32;101098.44;;;6.02;100.00
9249;BME280;4660;41.768;26.198;2023-03-17T00:39:00;101083.69;;;5.96;100.00
9249;BME280;4660;41.768;26.198;2023-03-17T00:41:29;101096.94;;;5.98;100.00
9249;BME280;4660;41.768;26.198;2023-03-17T00:43:56;101100.56;;;5.97;100.00
9249;BME280;4660;41.768;26.198;2023-03-17T00:46:29;101103.78;;;6.02;100.00
9249;BME280;4660;41.768;26.198;2023-03-17T00:49:24;101104.88;;;6.12;100.00
9249;BME280;4660;41.768;26.198;2023-03-17T00:51:51;101100.59;;;6.10;100.00
9249;BME280;4660;41.768;26.198;2023-03-17T00:54:19;101101.38;;;6.24;100.00
9249;BME280;4660;41.768;26.198;2023-03-17T00:56:50;101105.75;;;6.25;100.00
9249;BME280;4660;41.768;26.198;2023-03-17T00:59:29;101104.38;;;6.32;100.00
9249;BME280;4660;41.768;26.198;2023-03-17T01:01:58;101106.38;;;6.16;100.00
9249;BME280;4660;41.768;26.198;2023-03-17T01:04:24;101113.22;;;6.20;100.00
9249;BME280;4660;41.768;26.198;2023-03-17T01:06:54;101109.81;;;6.18;100.00
9249;BME280;4660;41.768;26.198;2023-03-17T01:09:25;101115.59;;;6.25;100.00
9249;BME280;4660;41.768;26.198;2023-03-17T01:11:59;101056.56;;;5.75;100.00
9249;BME280;4660;41.768;26.198;2023-03-17T01:14:26;101112.47;;;6.18;100.00
9249;BME280;4660;41.768;26.198;2023-03-17T01:16:53;101114.94;;;6.21;100.00
9249;BME280;4660;41.768;26.198;2023-03-17T01:19:20;101125.72;;;6.20;100.00
9249;BME280;4660;41.768;26.198;2023-03-17T01:21:47;101126.84;;;6.30;100.00
9249;BME280;4660;41.768;26.198;2023-03-17T01:24:15;101129.59;;;6.28;100.00
9249;BME280;4660;41.768;26.198;2023-03-17T01:26:41;101133.47;;;6.37;100.00
9249;BME280;4660;41.768;26.198;2023-03-17T01:29:09;101125.03;;;6.56;100.00
9249;BME280;4660;41.768;26.198;2023-03-17T01:31:37;101122.03;;;6.48;100.00
9249;BME280;4660;41.768;26.198;2023-03-17T01:34:05;101145.69;;;6.54;100.00
9249;BME280;4660;41.768;26.198;2023-03-17T01:36:31;101130.28;;;6.45;100.00
9249;BME280;4660;41.768;26.198;2023-03-17T01:38:59;101120.19;;;6.35;100.00
9249;BME280;4660;41.768;26.198;2023-03-17T01:41:26;101133.13;;;6.42;100.00
9249;BME280;4660;41.768;26.198;2023-03-17T01:43:53;101144.59;;;6.44;100.00
9249;BME280;4660;41.768;26.198;2023-03-17T01:46:34;101140.63;;;6.49;100.00
9249;BME280;4660;41.768;26.198;2023-03-17T01:52:20;101147.09;;;6.59;100.00
9249;BME280;4660;41.768;26.198;2023-03-17T01:54:59;101135.94;;;6.53;100.00
9249;BME280;4660;41.768;26.198;2023-03-17T01:57:45;101136.50;;;6.58;100.00
9249;BME280;4660;41.768;26.198;2023-03-17T02:00:19;101151.75;;;6.56;100.00
9249;BME280;4660;41.768;26.198;2023-03-17T02:02:55;101145.75;;;6.40;100.00
9249;BME280;4660;41.768;26.198;2023-03-17T02:05:27;101155.38;;;6.42;100.00
9249;BME280;4660;41.768;26.198;2023-03-17T02:07:56;101158.91;;;6.43;100.00
9249;BME280;4660;41.768;26.198;2023-03-17T02:10:26;101156.03;;;6.46;100.00
9249;BME280;4660;41.768;26.198;2023-03-17T02:13:05;101145.84;;;6.25;100.00
9249;BME280;4660;41.768;26.198;2023-03-17T02:15:47;101157.44;;;6.51;100.00
9249;BME280;4660;41.768;26.198;2023-03-17T02:18:20;101166.50;;;6.49;100.00
9249;BME280;4660;41.768;26.198;2023-03-17T02:24:00;101170.63;;;6.67;100.00
9249;BME280;4660;41.768;26.198;2023-03-17T02:26:30;101167.38;;;6.62;100.00
9249;BME280;4660;41.768;26.198;2023-03-17T02:28:59;101158.91;;;6.43;100.00
9249;BME280;4660;41.768;26.198;2023-03-17T02:31:26;101169.28;;;6.47;100.00
9249;BME280;4660;41.768;26.198;2023-03-17T02:33:53;101170.78;;;6.39;100.00
9249;BME280;4660;41.768;26.198;2023-03-17T02:36:21;101171.84;;;6.36;100.00
9249;BME280;4660;41.768;26.198;2023-03-17T02:38:48;101179.34;;;6.44;100.00
9249;BME280;4660;41.768;26.198;2023-03-17T02:41:15;101184.69;;;6.44;100.00
9249;BME280;4660;41.768;26.198;2023-03-17T02:43:44;101183.81;;;6.30;100.00
9249;BME280;4660;41.768;26.198;2023-03-17T02:46:10;101184.66;;;6.31;100.00
9249;BME280;4660;41.768;26.198;2023-03-17T02:48:38;101190.00;;;6.31;100.00
9249;BME280;4660;41.768;26.198;2023-03-17T02:51:05;101178.63;;;6.15;100.00
9249;BME280;4660;41.768;26.198;2023-03-17T02:53:33;101183.53;;;6.21;100.00
9249;BME280;4660;41.768;26.198;2023-03-17T02:56:00;101160.91;;;5.99;100.00
9249;BME280;4660;41.768;26.198;2023-03-17T02:58:28;101181.63;;;6.23;100.00
9249;BME280;4660;41.768;26.198;2023-03-17T03:00:55;101177.91;;;6.25;100.00
9249;BME280;4660;41.768;26.198;2023-03-17T03:03:22;101189.25;;;6.29;100.00
9249;BME280;4660;41.768;26.198;2023-03-17T03:05:49;101196.59;;;6.25;100.00
9249;BME280;4660;41.768;26.198;2023-03-17T03:08:16;101190.50;;;6.23;100.00
9249;BME280;4660;41.768;26.198;2023-03-17T03:10:43;101197.00;;;6.19;100.00
9249;BME280;4660;41.768;26.198;2023-03-17T03:13:11;101196.34;;;6.16;100.00
9249;BME280;4660;41.768;26.198;2023-03-17T03:15:39;101204.06;;;6.20;100.00
9249;BME280;4660;41.768;26.198;2023-03-17T03:18:06;101200.63;;;6.18;100.00
9249;BME280;4660;41.768;26.198;2023-03-17T03:20:33;101199.09;;;6.14;100.00
9249;BME280;4660;41.768;26.198;2023-03-17T03:23:00;101209.72;;;6.16;100.00
9249;BME280;4660;41.768;26.198;2023-03-17T03:25:26;101216.03;;;6.15;100.00
9249;BME280;4660;41.768;26.198;2023-03-17T03:27:52;101212.69;;;6.11;100.00
9249;BME280;4660;41.768;26.198;2023-03-17T03:30:21;101209.41;;;6.20;100.00
9249;BME280;4660;41.768;26.198;2023-03-17T03:32:47;101206.78;;;6.06;100.00
9249;BME280;4660;41.768;26.198;2023-03-17T03:35:15;101205.34;;;6.15;100.00
9249;BME280;4660;41.768;26.198;2023-03-17T03:37:41;101212.91;;;6.08;100.00
9249;BME280;4660;41.768;26.198;2023-03-17T03:40:08;101209.09;;;5.98;100.00
9249;BME280;4660;41.768;26.198;2023-03-17T03:42:37;101197.66;;;5.82;100.00
9249;BME280;4660;41.768;26.198;2023-03-17T03:45:04;101205.66;;;5.82;100.00
9249;BME280;4660;41.768;26.198;2023-03-17T03:47:31;101211.38;;;5.90;100.00
9249;BME280;4660;41.768;26.198;2023-03-17T03:49:58;101211.38;;;5.90;100.00
9249;BME280;4660;41.768;26.198;2023-03-17T03:52:24;101216.25;;;5.83;100.00
9249;BME280;4660;41.768;26.198;2023-03-17T03:54:51;101220.72;;;5.83;100.00
9249;BME280;4660;41.768;26.198;2023-03-17T03:57:18;101207.38;;;5.83;100.00
9249;BME280;4660;41.768;26.198;2023-03-17T03:59:45;101223.19;;;5.86;100.00
9249;BME280;4660;41.768;26.198;2023-03-17T04:02:11;101222.75;;;5.93;100.00
9249;BME280;4660;41.768;26.198;2023-03-17T04:04:38;101193.81;;;5.86;100.00
9249;BME280;4660;41.768;26.198;2023-03-17T04:07:05;101221.19;;;5.89;100.00
9249;BME280;4660;41.768;26.198;2023-03-17T04:09:36;101232.94;;;5.87;100.00
9249;BME280;4660;41.768;26.198;2023-03-17T04:12:06;101237.63;;;5.97;100.00
9249;BME280;4660;41.768;26.198;2023-03-17T04:14:34;101232.38;;;5.96;100.00
9249;BME280;4660;41.768;26.198;2023-03-17T04:17:01;101237.44;;;6.00;100.00
9249;BME280;4660;41.768;26.198;2023-03-17T04:19:29;101248.19;;;5.99;100.00
9249;BME280;4660;41.768;26.198;2023-03-17T04:21:55;101251.66;;;6.01;100.00
9249;BME280;4660;41.768;26.198;2023-03-17T04:24:22;101258.47;;;6.05;100.00
9249;BME280;4660;41.768;26.198;2023-03-17T04:26:50;101251.31;;;6.05;100.00
9249;BME280;4660;41.768;26.198;2023-03-17T04:29:17;101263.34;;;5.84;100.00
9249;BME280;4660;41.768;26.198;2023-03-17T04:31:43;101244.50;;;5.73;100.00
9249;BME280;4660;41.768;26.198;2023-03-17T04:34:23;101279.78;;;5.92;100.00
9249;BME280;4660;41.768;26.198;2023-03-17T04:36:50;101254.22;;;5.74;100.00
9249;BME280;4660;41.768;26.198;2023-03-17T04:39:17;101275.84;;;5.84;100.00
9249;BME280;4660;41.768;26.198;2023-03-17T04:41:44;101286.34;;;5.87;100.00
9249;BME280;4660;41.768;26.198;2023-03-17T04:44:12;101262.59;;;5.82;100.00
9249;BME280;4660;41.768;26.198;2023-03-17T04:46:39;101278.50;;;5.84;100.00
9249;BME280;4660;41.768;26.198;2023-03-17T04:49:06;101281.19;;;5.84;100.00
9249;BME280;4660;41.768;26.198;2023-03-17T04:51:35;101276.06;;;5.80;100.00
9249;BME280;4660;41.768;26.198;2023-03-17T04:54:05;101292.44;;;5.89;100.00
9249;BME280;4660;41.768;26.198;2023-03-17T04:56:35;101293.41;;;5.88;100.00
9249;BME280;4660;41.768;26.198;2023-03-17T04:59:03;101289.53;;;5.93;100.00
9249;BME280;4660;41.768;26.198;2023-03-17T05:01:30;101298.47;;;5.92;100.00
9249;BME280;4660;41.768;26.198;2023-03-17T05:03:57;101290.91;;;5.99;100.00
9249;BME280;4660;41.768;26.198;2023-03-17T05:06:26;101293.81;;;5.96;100.00
9249;BME280;4660;41.768;26.198;2023-03-17T05:08:52;101306.19;;;5.97;100.00
9249;BME280;4660;41.768;26.198;2023-03-17T05:11:19;101294.75;;;5.95;100.00
9249;BME280;4660;41.768;26.198;2023-03-17T05:13:47;101298.56;;;5.91;100.00
9249;BME280;4660;41.768;26.198;2023-03-17T05:16:12;101299.78;;;5.85;100.00
9249;BME280;4660;41.768;26.198;2023-03-17T05:18:39;101315.91;;;5.98;100.00
9249;BME280;4660;41.768;26.198;2023-03-17T05:21:08;101293.56;;;5.85;100.00
9249;BME280;4660;41.768;26.198;2023-03-17T05:23:35;101307.06;;;5.97;100.00
9249;BME280;4660;41.768;26.198;2023-03-17T05:26:02;101312.47;;;6.10;100.00
9249;BME280;4660;41.768;26.198;2023-03-17T05:28:30;101322.78;;;6.02;100.00
9249;BME280;4660;41.768;26.198;2023-03-17T05:30:58;101233.38;;;5.52;100.00
9249;BME280;4660;41.768;26.198;2023-03-17T05:33:25;101324.50;;;6.03;100.00
9249;BME280;4660;41.768;26.198;2023-03-17T05:35:54;101329.63;;;6.06;100.00
9249;BME280;4660;41.768;26.198;2023-03-17T05:38:20;101326.03;;;5.93;100.00
9249;BME280;4660;41.768;26.198;2023-03-17T05:40:49;101333.75;;;5.97;100.00
9249;BME280;4660;41.768;26.198;2023-03-17T05:43:18;101318.19;;;5.90;100.00
9249;BME280;4660;41.768;26.198;2023-03-17T05:45:45;101348.53;;;6.17;100.00
9249;BME280;4660;41.768;26.198;2023-03-17T05:48:14;101339.56;;;6.18;100.00
9249;BME280;4660;41.768;26.198;2023-03-17T05:50:41;101344.66;;;6.35;100.00
9249;BME280;4660;41.768;26.198;2023-03-17T05:53:09;101338.06;;;6.41;100.00
9249;BME280;4660;41.768;26.198;2023-03-17T05:55:36;101349.81;;;6.39;100.00
9249;BME280;4660;41.768;26.198;2023-03-17T05:58:06;101359.19;;;6.31;100.00
9249;BME280;4660;41.768;26.198;2023-03-17T06:00:36;101367.38;;;6.28;100.00
9249;BME280;4660;41.768;26.198;2023-03-17T06:03:07;101362.53;;;6.21;100.00
9249;BME280;4660;41.768;26.198;2023-03-17T06:05:36;101366.75;;;6.25;100.00
9249;BME280;4660;41.768;26.198;2023-03-17T06:08:03;101378.47;;;6.37;100.00
9249;BME280;4660;41.768;26.198;2023-03-17T06:10:32;101375.34;;;6.30;100.00
9249;BME280;4660;41.768;26.198;2023-03-17T06:12:59;101380.69;;;6.30;100.00
9249;BME280;4660;41.768;26.198;2023-03-17T06:15:29;101374.66;;;6.26;100.00
9249;BME280;4660;41.768;26.198;2023-03-17T06:17:56;101379.13;;;6.40;100.00
9249;BME280;4660;41.768;26.198;2023-03-17T06:20:22;101392.56;;;6.53;100.00
9249;BME280;4660;41.768;26.198;2023-03-17T06:23:09;101402.47;;;6.65;100.00
9249;BME280;4660;41.768;26.198;2023-03-17T06:25:36;101384.91;;;6.61;100.00
9249;BME280;4660;41.768;26.198;2023-03-17T06:28:07;101400.09;;;6.60;100.00
9249;BME280;4660;41.768;26.198;2023-03-17T06:30:34;101401.50;;;6.66;100.00
9249;BME280;4660;41.768;26.198;2023-03-17T06:33:05;101392.53;;;6.67;100.00
9249;BME280;4660;41.768;26.198;2023-03-17T06:35:33;101403.72;;;6.59;100.00
9249;BME280;4660;41.768;26.198;2023-03-17T06:38:01;101403.03;;;6.56;100.00
9249;BME280;4660;41.768;26.198;2023-03-17T06:40:29;101415.28;;;6.60;100.00
9249;BME280;4660;41.768;26.198;2023-03-17T06:42:59;101398.09;;;6.50;100.00
9249;BME280;4660;41.768;26.198;2023-03-17T06:45:26;101412.78;;;6.57;100.00
9249;BME280;4660;41.768;26.198;2023-03-17T06:47:58;101397.53;;;6.59;100.00
9249;BME280;4660;41.768;26.198;2023-03-17T06:50:25;101406.47;;;6.72;100.00
9249;BME280;4660;41.768;26.198;2023-03-17T06:52:57;101423.06;;;6.77;100.00
9249;BME280;4660;41.768;26.198;2023-03-17T06:55:24;101425.38;;;6.69;100.00
9249;BME280;4660;41.768;26.198;2023-03-17T06:57:54;101404.19;;;6.66;100.00
9249;BME280;4660;41.768;26.198;2023-03-17T07:00:21;101418.28;;;6.82;100.00
9249;BME280;4660;41.768;26.198;2023-03-17T07:02:48;101407.22;;;6.74;100.00
9249;BME280;4660;41.768;26.198;2023-03-17T07:05:15;101399.81;;;6.65;100.00
9249;BME280;4660;41.768;26.198;2023-03-17T07:07:41;101412.34;;;6.77;100.00
9249;BME280;4660;41.768;26.198;2023-03-17T07:10:09;101402.84;;;6.73;100.00
9249;BME280;4660;41.768;26.198;2023-03-17T07:12:36;101433.88;;;7.03;100.00
9249;BME280;4660;41.768;26.198;2023-03-17T07:15:03;101422.31;;;7.02;100.00
9249;BME280;4660;41.768;26.198;2023-03-17T07:17:34;101422.25;;;7.16;100.00
9249;BME280;4660;41.768;26.198;2023-03-17T07:20:01;101442.53;;;7.33;100.00
9249;BME280;4660;41.768;26.198;2023-03-17T07:22:29;101428.00;;;7.37;100.00
9249;BME280;4660;41.768;26.198;2023-03-17T07:24:57;101422.91;;;7.20;100.00
9249;BME280;4660;41.768;26.198;2023-03-17T07:27:24;101430.41;;;7.28;100.00
9249;BME280;4660;41.768;26.198;2023-03-17T07:29:53;101447.34;;;7.28;100.00
9249;BME280;4660;41.768;26.198;2023-03-17T07:32:23;101436.63;;;7.28;100.00
9249;BME280;4660;41.768;26.198;2023-03-17T07:34:56;101431.09;;;7.31;100.00
9249;BME280;4660;41.768;26.198;2023-03-17T07:37:34;101440.00;;;7.44;100.00
9249;BME280;4660;41.768;26.198;2023-03-17T07:40:01;101440.47;;;7.51;100.00
9249;BME280;4660;41.768;26.198;2023-03-17T07:42:31;101455.22;;;7.57;100.00
9249;BME280;4660;41.768;26.198;2023-03-17T07:44:59;101434.31;;;7.49;100.00
9249;BME280;4660;41.768;26.198;2023-03-17T07:47:36;101455.78;;;7.62;100.00
9249;BME280;4660;41.768;26.198;2023-03-17T07:50:04;101447.56;;;7.78;100.00
9249;BME280;4660;41.768;26.198;2023-03-17T07:52:51;101453.56;;;8.07;100.00
9249;BME280;4660;41.768;26.198;2023-03-17T07:55:18;101451.66;;;8.09;100.00
9249;BME280;4660;41.768;26.198;2023-03-17T07:57:45;101454.19;;;7.85;100.00
9249;BME280;4660;41.768;26.198;2023-03-17T08:00:13;101411.44;;;7.58;100.00
9249;BME280;4660;41.768;26.198;2023-03-17T08:02:41;101462.78;;;7.90;100.00
9249;BME280;4660;41.768;26.198;2023-03-17T08:05:09;101446.16;;;7.85;100.00
9249;BME280;4660;41.768;26.198;2023-03-17T08:07:36;101451.34;;;8.00;100.00
9249;BME280;4660;41.768;26.198;2023-03-17T08:10:03;101459.38;;;8.13;100.00
9249;BME280;4660;41.768;26.198;2023-03-17T08:12:33;101456.13;;;8.21;100.00
9249;BME280;4660;41.768;26.198;2023-03-17T08:15:00;101451.31;;;8.13;100.00
9249;BME280;4660;41.768;26.198;2023-03-17T08:17:27;101449.75;;;8.36;100.00
9249;BME280;4660;41.768;26.198;2023-03-17T08:19:55;101447.75;;;8.64;100.00
9249;BME280;4660;41.768;26.198;2023-03-17T08:22:22;101463.47;;;8.44;100.00
9249;BME280;4660;41.768;26.198;2023-03-17T08:24:50;101449.06;;;8.33;100.00
9249;BME280;4660;41.768;26.198;2023-03-17T08:27:18;101425.72;;;8.09;100.00
9249;BME280;4660;41.768;26.198;2023-03-17T08:29:47;101457.00;;;8.34;100.00
9249;BME280;4660;41.768;26.198;2023-03-17T08:32:37;101438.47;;;8.44;100.00
9249;BME280;4660;41.768;26.198;2023-03-17T08:35:05;101450.91;;;8.58;100.00
9249;BME280;4660;41.768;26.198;2023-03-17T08:37:35;101436.22;;;8.50;100.00
9249;BME280;4660;41.768;26.198;2023-03-17T08:40:03;101442.88;;;8.45;100.00
9249;BME280;4660;41.768;26.198;2023-03-17T08:42:31;101447.25;;;8.46;100.00
9249;BME280;4660;41.768;26.198;2023-03-17T08:44:58;101463.91;;;8.51;100.00
9249;BME280;4660;41.768;26.198;2023-03-17T08:47:25;101461.94;;;8.53;100.00
9249;BME280;4660;41.768;26.198;2023-03-17T08:49:55;101459.69;;;8.47;100.00
9249;BME280;4660;41.768;26.198;2023-03-17T08:52:27;101450.56;;;8.49;100.00
9249;BME280;4660;41.768;26.198;2023-03-17T08:54:54;101466.66;;;8.49;100.00
9249;BME280;4660;41.768;26.198;2023-03-17T08:57:21;101466.88;;;8.46;100.00
9249;BME280;4660;41.768;26.198;2023-03-17T08:59:51;101451.03;;;8.43;100.00
9249;BME280;4660;41.768;26.198;2023-03-17T09:02:18;101429.03;;;8.38;100.00
9249;BME280;4660;41.768;26.198;2023-03-17T09:04:45;101445.75;;;8.54;100.00
9249;BME280;4660;41.768;26.198;2023-03-17T09:07:12;101442.94;;;8.56;100.00
9249;BME280;4660;41.768;26.198;2023-03-17T09:09:43;101461.84;;;8.91;100.00
9249;BME280;4660;41.768;26.198;2023-03-17T09:12:11;101459.13;;;9.04;100.00
9249;BME280;4660;41.768;26.198;2023-03-17T09:14:39;101461.63;;;8.94;100.00
9249;BME280;4660;41.768;26.198;2023-03-17T09:17:14;101436.53;;;8.59;100.00
9249;BME280;4660;41.768;26.198;2023-03-17T09:19:41;101439.81;;;8.62;100.00
9249;BME280;4660;41.768;26.198;2023-03-17T09:22:17;101460.00;;;8.55;100.00
9249;BME280;4660;41.768;26.198;2023-03-17T09:24:52;101464.69;;;8.77;100.00
9249;BME280;4660;41.768;26.198;2023-03-17T09:27:19;101463.91;;;8.88;100.00
9249;BME280;4660;41.768;26.198;2023-03-17T09:29:52;101470.66;;;8.93;100.00
9249;BME280;4660;41.768;26.198;2023-03-17T09:32:22;101458.25;;;8.79;100.00
9249;BME280;4660;41.768;26.198;2023-03-17T09:34:49;101467.88;;;8.82;100.00
9249;BME280;4660;41.768;26.198;2023-03-17T09:37:17;101443.59;;;8.96;100.00
9249;BME280;4660;41.768;26.198;2023-03-17T09:39:44;101439.88;;;9.10;95.20
9249;BME280;4660;41.768;26.198;2023-03-17T09:42:41;101467.94;;;9.30;85.01
9249;BME280;4660;41.768;26.198;2023-03-17T09:45:40;101460.94;;;9.03;85.83
9249;BME280;4660;41.768;26.198;2023-03-17T09:51:24;101440.63;;;8.88;85.89
9249;BME280;4660;41.768;26.198;2023-03-17T09:54:05;101449.19;;;8.93;84.67
9249;BME280;4660;41.768;26.198;2023-03-17T09:56:39;101473.41;;;9.04;84.99
9249;BME280;4660;41.768;26.198;2023-03-17T09:59:28;101450.09;;;9.05;84.28
9249;BME280;4660;41.768;26.198;2023-03-17T10:02:23;101448.16;;;9.31;85.89
9249;BME280;4660;41.768;26.198;2023-03-17T10:05:21;101446.28;;;9.55;85.52
9249;BME280;4660;41.768;26.198;2023-03-17T10:08:16;101455.91;;;9.82;84.12
9249;BME280;4660;41.768;26.198;2023-03-17T10:13:59;101447.84;;;9.82;83.95
9249;BME280;4660;41.768;26.198;2023-03-17T10:22:17;101440.72;;;9.58;82.96
9249;BME280;4660;41.768;26.198;2023-03-17T10:24:56;101422.94;;;9.45;82.97
9249;BME280;4660;41.768;26.198;2023-03-17T10:27:26;101448.06;;;9.68;83.68
9249;BME280;4660;41.768;26.198;2023-03-17T10:29:59;101453.94;;;9.84;83.63
9249;BME280;4660;41.768;26.198;2023-03-17T10:32:29;101458.13;;;9.99;83.94
9249;BME280;4660;41.768;26.198;2023-03-17T10:35:01;101437.88;;;10.17;82.23
9249;BME280;4660;41.768;26.198;2023-03-17T10:37:28;101436.91;;;10.18;83.78
9249;BME280;4660;41.768;26.198;2023-03-17T10:40:25;101447.22;;;10.25;82.55
9249;BME280;4660;41.768;26.198;2023-03-17T10:43:03;101438.84;;;10.05;82.03
9249;BME280;4660;41.768;26.198;2023-03-17T10:45:38;101443.75;;;10.00;82.06
9249;BME280;4660;41.768;26.198;2023-03-17T10:48:15;101432.47;;;10.06;84.33
9249;BME280;4660;41.768;26.198;2023-03-17T10:50:46;101440.63;;;10.29;85.28
9249;BME280;4660;41.768;26.198;2023-03-17T10:53:22;101423.97;;;10.35;81.72
9249;BME280;4660;41.768;26.198;2023-03-17T10:56:07;101413.34;;;10.44;80.52
9249;BME280;4660;41.768;26.198;2023-03-17T10:58:42;101425.56;;;10.60;80.68
9249;BME280;4660;41.768;26.198;2023-03-17T11:03:55;101418.56;;;10.57;81.76
9249;BME280;4660;41.768;26.198;2023-03-17T11:06:40;101417.84;;;10.55;81.60
9249;BME280;4660;41.768;26.198;2023-03-17T11:09:16;101400.63;;;10.35;79.94
9249;BME280;4660;41.768;26.198;2023-03-17T11:14:47;101411.78;;;10.31;82.08
9249;BME280;4660;41.768;26.198;2023-03-17T11:17:21;101398.44;;;10.40;82.11
9249;BME280;4660;41.768;26.198;2023-03-17T11:22:41;101396.81;;;10.60;82.60
9249;BME280;4660;41.768;26.198;2023-03-17T11:25:19;101400.50;;;10.59;80.23
9249;BME280;4660;41.768;26.198;2023-03-17T11:28:18;101401.56;;;10.57;81.85
9249;BME280;4660;41.768;26.198;2023-03-17T11:33:55;101392.75;;;10.77;85.34
9249;BME280;4660;41.768;26.198;2023-03-17T11:39:31;101397.56;;;10.51;83.81
9249;BME280;4660;41.768;26.198;2023-03-17T11:42:36;101383.31;;;10.71;83.45
9249;BME280;4660;41.768;26.198;2023-03-17T11:45:24;101380.97;;;10.89;84.54
9249;BME280;4660;41.768;26.198;2023-03-17T11:48:14;101373.16;;;10.86;81.88
9249;BME280;4660;41.768;26.198;2023-03-17T11:54:02;101379.53;;;10.74;80.17
9249;BME280;4660;41.768;26.198;2023-03-17T12:05:30;101359.94;;;10.83;80.02
9249;BME280;4660;41.768;26.198;2023-03-17T12:08:05;101373.25;;;10.85;80.95
9249;BME280;4660;41.768;26.198;2023-03-17T12:10:50;101375.50;;;10.80;79.82
9249;BME280;4660;41.768;26.198;2023-03-17T12:13:43;101378.06;;;10.81;80.09
9249;BME280;4660;41.768;26.198;2023-03-17T12:19:20;101371.31;;;10.87;79.60
9249;BME280;4660;41.768;26.198;2023-03-17T12:22:30;101371.78;;;10.92;79.07
9249;BME280;4660;41.768;26.198;2023-03-17T12:28:19;101365.09;;;11.07;78.22
9249;BME280;4660;41.768;26.198;2023-03-17T12:31:02;101364.88;;;11.10;79.27
9249;BME280;4660;41.768;26.198;2023-03-17T12:33:39;101360.16;;;11.23;79.72
9249;BME280;4660;41.768;26.198;2023-03-17T12:36:33;101337.09;;;11.10;78.98
9249;BME280;4660;41.768;26.198;2023-03-17T12:39:23;101367.63;;;11.20;77.96
9249;BME280;4660;41.768;26.198;2023-03-17T12:53:25;101355.69;;;11.34;75.40
9249;BME280;4660;41.768;26.198;2023-03-17T12:56:02;101350.94;;;11.26;76.76
9249;BME280;4660;41.768;26.198;2023-03-17T12:58:53;101354.03;;;11.21;76.88
9249;BME280;4660;41.768;26.198;2023-03-17T13:04:25;101361.25;;;11.21;79.00
9249;BME280;4660;41.768;26.198;2023-03-17T13:07:30;101351.81;;;11.47;79.23
9249;BME280;4660;41.768;26.198;2023-03-17T13:15:49;101363.06;;;11.32;79.18
9249;BME280;4660;41.768;26.198;2023-03-17T13:27:39;101356.28;;;11.37;76.54
9249;BME280;4660;41.768;26.198;2023-03-17T13:29:42;101354.03;;;11.42;73.83
9249;BME280;4660;41.768;26.198;2023-03-17T13:35:16;101348.41;;;11.24;74.56
9249;BME280;4660;41.768;26.198;2023-03-17T13:46:44;101338.94;;;11.51;73.98
9249;BME280;4660;41.768;26.198;2023-03-17T13:49:26;101346.47;;;11.57;73.60
9249;BME280;4660;41.768;26.198;2023-03-17T13:52:13;101343.34;;;11.52;74.40
9249;BME280;4660;41.768;26.198;2023-03-17T13:55:04;101331.19;;;11.37;74.41
9249;BME280;4660;41.768;26.198;2023-03-17T14:00:44;101341.88;;;11.48;75.23
9249;BME280;4660;41.768;26.198;2023-03-17T14:03:28;101346.19;;;11.50;73.48
9249;BME280;4660;41.768;26.198;2023-03-17T14:05:56;101334.00;;;11.56;74.56
9249;BME280;4660;41.768;26.198;2023-03-17T14:08:38;101356.38;;;11.77;71.67
9249;BME280;4660;41.768;26.198;2023-03-17T14:11:38;101343.91;;;11.76;71.27
9249;BME280;4660;41.768;26.198;2023-03-17T14:14:13;101347.19;;;11.80;73.40
9249;BME280;4660;41.768;26.198;2023-03-17T14:17:38;101346.41;;;11.68;68.52
9249;BME280;4660;41.768;26.198;2023-03-17T14:22:43;101348.06;;;11.60;69.83
9249;BME280;4660;41.768;26.198;2023-03-17T14:25:20;101335.19;;;11.42;70.09
9249;BME280;4660;41.768;26.198;2023-03-17T14:28:05;101355.63;;;11.45;69.25
9249;BME280;4660;41.768;26.198;2023-03-17T14:30:34;101356.28;;;11.58;68.61
9249;BME280;4660;41.768;26.198;2023-03-17T14:33:26;101346.22;;;11.60;70.48
9249;BME280;4660;41.768;26.198;2023-03-17T14:35:58;101346.63;;;11.55;69.97
9249;BME280;4660;41.768;26.198;2023-03-17T14:38:30;101324.34;;;11.33;69.67
9249;BME280;4660;41.768;26.198;2023-03-17T14:43:34;101341.84;;;11.38;70.79
9249;BME280;4660;41.768;26.198;2023-03-17T14:46:06;101348.72;;;11.31;70.91
9249;BME280;4660;41.768;26.198;2023-03-17T14:48:56;101329.47;;;11.36;70.67
9249;BME280;4660;41.768;26.198;2023-03-17T14:51:37;101313.06;;;11.39;69.35
9249;BME280;4660;41.768;26.198;2023-03-17T14:54:23;101204.63;;;10.74;70.08
9249;BME280;4660;41.768;26.198;2023-03-17T14:57:16;101278.31;;;10.94;71.86
9249;BME280;4660;41.768;26.198;2023-03-17T14:59:55;101228.03;;;10.62;72.27
9249;BME280;4660;41.768;26.198;2023-03-17T15:02:33;101251.91;;;10.88;73.34
9249;BME280;4660;41.768;26.198;2023-03-17T15:05:28;101335.84;;;11.35;73.09
9249;BME280;4660;41.768;26.198;2023-03-17T15:08:01;101267.78;;;10.91;73.26